Main page
METAR-TAF:

METAR-TAF

Airports :

Aeroporto di Sarzana-Luni

Sarzana, Italy

latitude: 44-05N, longitude: 009-59E, elevation: 9 m

METAR: missing

Time: 13:38 (12:38 UTC)

Forecast

The report was made 28 hours and 38 minutes ago, at 08:00 UTC
Forecast valid from 13 at 09 UTC to 13 at 18 UTC
Wind 12 kt from the Southeast
Visibility: 8000 m
Scattered clouds at a height of 1000 ft
Broken clouds at a height of 2000 ft
Temporary
from 13 at 09 UTC to 13 at 15 UTC
Visibility: 4000 m
rain, mist

TAF: LIQW 130800Z 1309/1318 13012KT 8000 SCT010 BKN020 TEMPO 1309/1315 4000 RA BR

Weather observations and forecasts of more than 4000 airports (METAR and TAF reports).

The available stations are represented by yellow and red dots on the map.

Hover mouse over dot to see the name of the station.

Then click to see weather observations and forecasts.

To change the map : click on the green buttons with a black cross to zoom in, on the green button with a dash to zoom out, or on the green arrows for adjacent maps.


METAR-TAF: